Time;durP1;ratioP1;P1;durP2;ratioP2;P2;SDS_P1;SDS_P2;PMS_P1;PMS_P2;Temp;Humidity;BMP_temperature;BMP_pressure;BME280_temperature;BME280_humidity;BME280_pressure;Samples;Min_cycle;Max_cycle;Signal;HPM_P1;HPM_P2
2021/06/13 00:01:23;;;;;;;8.85;3.20;;;13.60;99.90;;;;;;5115948;28;20174;-84
2021/06/13 00:03:50;;;;;;;5.18;3.60;;;13.60;99.90;;;;;;5117064;28;20200;-85
2021/06/13 00:06:15;;;;;;;8.27;4.83;;;13.60;99.90;;;;;;5116207;28;20418;-84
2021/06/13 00:08:41;;;;;;;5.43;3.50;;;13.70;99.90;;;;;;5117479;28;20182;-84
2021/06/13 00:11:07;;;;;;;5.88;4.00;;;;;;;;;;5117493;28;20185;-85
2021/06/13 00:13:33;;;;;;;6.35;3.90;;;14.40;99.90;;;;;;5117179;28;20252;-84
2021/06/13 00:15:59;;;;;;;4.22;3.58;;;13.50;99.90;;;;;;5116168;28;20622;-84
2021/06/13 00:18:25;;;;;;;6.85;3.90;;;13.60;99.90;;;;;;5116967;28;20170;-84
2021/06/13 00:20:52;;;;;;;8.85;4.53;;;13.60;99.90;;;;;;5117388;28;20219;-84
2021/06/13 00:23:18;;;;;;;9.98;5.03;;;13.50;99.90;;;;;;5117039;28;20209;-85
2021/06/13 00:25:44;;;;;;;5.18;4.43;;;13.60;99.90;;;;;;5115602;28;20546;-84
2021/06/13 00:28:10;;;;;;;6.80;4.28;;;13.70;99.90;;;;;;5117140;28;20181;-84
2021/06/13 00:30:36;;;;;;;5.53;4.15;;;;;;;;;;5117121;28;20174;-84
2021/06/13 00:33:02;;;;;;;7.95;3.88;;;13.70;99.90;;;;;;5117019;28;20178;-84
2021/06/13 00:35:28;;;;;;;6.40;4.72;;;13.60;99.90;;;;;;5115785;28;20264;-84
2021/06/13 00:37:54;;;;;;;6.25;4.88;;;;;;;;;;5115823;28;20715;-84
2021/06/13 00:40:22;;;;;;;6.68;5.15;;;13.50;99.90;;;;;;5115761;28;20227;-83
2021/06/13 00:42:49;;;;;;;7.88;5.03;;;13.20;99.90;;;;;;5116521;28;20173;-83
2021/06/13 00:45:14;;;;;;;8.05;5.53;;;13.30;99.90;;;;;;5098471;28;20277;-84
2021/06/13 00:47:41;;;;;;;7.22;5.40;;;13.10;99.90;;;;;;5116570;28;20206;-84
2021/06/13 00:50:34;;;;;;;7.72;5.32;;;13.40;99.90;;;;;;5115652;28;20170;-84
2021/06/13 00:53:07;;;;;;;9.18;5.80;;;13.00;99.90;;;;;;5102016;28;20326;-84
2021/06/13 00:55:33;;;;;;;11.18;6.13;;;13.00;99.90;;;;;;5114666;28;20173;-84
2021/06/13 00:58:00;;;;;;;7.03;5.40;;;13.30;99.90;;;;;;5115073;28;20227;-83
2021/06/13 01:00:27;;;;;;;7.60;5.78;;;13.10;99.90;;;;;;5115897;28;20178;-84
2021/06/13 01:02:54;;;;;;;6.45;5.15;;;13.50;99.90;;;;;;5116459;28;20197;-84
2021/06/13 01:05:20;;;;;;;8.23;5.00;;;13.30;99.90;;;;;;5115219;28;20591;-83
2021/06/13 01:08:14;;;;;;;7.25;5.53;;;13.50;99.90;;;;;;5116150;28;20173;-83
2021/06/13 01:10:51;;;;;;;11.25;5.80;;;13.20;99.90;;;;;;5114861;28;20188;-85
2021/06/13 01:13:38;;;;;;;10.25;6.00;;;13.10;99.90;;;;;;5116328;28;20299;-83
2021/06/13 01:16:07;;;;;;;7.60;5.20;;;13.10;99.90;;;;;;5114886;28;20178;-83
2021/06/13 01:18:50;;;;;;;11.57;6.18;;;12.80;99.90;;;;;;5116016;28;20169;-83
2021/06/13 01:21:21;;;;;;;8.75;6.00;;;13.00;99.90;;;;;;5116264;28;20166;-83
2021/06/13 01:24:02;;;;;;;9.23;6.68;;;12.90;99.90;;;;;;5114651;28;20642;-83
2021/06/13 01:26:54;;;;;;;14.13;6.20;;;13.30;99.90;;;;;;5115775;28;20178;-84
2021/06/13 01:29:26;;;;;;;9.25;6.18;;;13.30;99.90;;;;;;5116125;28;20642;-83
2021/06/13 01:31:55;;;;;;;10.40;7.03;;;13.00;99.90;;;;;;5114744;28;20180;-83
2021/06/13 01:34:26;;;;;;;12.40;6.82;;;13.50;99.90;;;;;;5115546;28;20177;-83
2021/06/13 01:36:54;;;;;;;8.63;7.28;;;13.00;99.90;;;;;;5115941;28;20166;-83
2021/06/13 01:39:24;;;;;;;9.07;6.63;;;13.10;99.90;;;;;;5115809;28;20170;-82
2021/06/13 01:41:50;;;;;;;8.60;6.85;;;12.80;99.90;;;;;;5115608;28;20227;-83
2021/06/13 01:44:18;;;;;;;11.50;7.05;;;13.00;99.90;;;;;;5114297;28;20198;-83
2021/06/13 01:46:47;;;;;;;9.30;7.03;;;13.00;99.90;;;;;;5113850;28;20188;-85
2021/06/13 01:49:13;;;;;;;10.93;7.53;;;12.90;99.90;;;;;;5115228;28;20578;-82
2021/06/13 01:51:39;;;;;;;11.00;7.53;;;13.10;99.90;;;;;;5113929;28;20178;-85
2021/06/13 01:54:06;;;;;;;11.60;6.85;;;12.90;99.90;;;;;;5114878;28;20722;-82
2021/06/13 01:56:37;;;;;;;13.35;6.82;;;13.00;99.90;;;;;;5115099;28;20212;-83
2021/06/13 01:59:04;;;;;;;9.52;6.72;;;12.80;99.90;;;;;;5115030;28;20649;-83
2021/06/13 02:01:31;;;;;;;13.50;7.47;;;12.60;99.90;;;;;;5113822;28;20177;-83
2021/06/13 02:04:00;;;;;;;9.27;7.22;;;12.80;99.90;;;;;;5115101;28;20198;-86
2021/06/13 02:06:30;;;;;;;9.30;7.30;;;13.20;99.90;;;;;;5114534;28;20276;-85
2021/06/13 02:08:58;;;;;;;17.65;7.70;;;12.90;99.90;;;;;;5112005;28;20165;-83
2021/06/13 02:11:24;;;;;;;13.05;7.57;;;12.80;99.90;;;;;;5114931;28;20174;-83
2021/06/13 02:13:50;;;;;;;13.27;7.90;;;13.00;99.90;;;;;;5113180;28;20249;-82
2021/06/13 02:16:18;;;;;;;15.07;8.60;;;12.40;99.90;;;;;;5114811;28;20256;-83
2021/06/13 02:18:45;;;;;;;9.32;7.28;;;12.90;99.90;;;;;;5114867;28;20166;-83
2021/06/13 02:21:12;;;;;;;13.38;7.57;;;12.70;99.90;;;;;;5114042;28;20206;-82
2021/06/13 02:23:40;;;;;;;12.63;7.45;;;13.10;99.90;;;;;;5114886;28;20198;-83
2021/06/13 02:26:06;;;;;;;10.07;6.85;;;12.30;99.90;;;;;;5114874;27;20189;-82
2021/06/13 02:28:38;;;;;;;9.32;6.85;;;12.70;99.90;;;;;;5114945;28;20170;-83
2021/06/13 02:31:07;;;;;;;10.50;6.93;;;12.50;99.90;;;;;;5114855;28;20170;-82
2021/06/13 02:33:34;;;;;;;10.32;6.55;;;12.90;99.90;;;;;;5114714;28;20215;-82
2021/06/13 02:36:01;;;;;;;10.65;6.65;;;12.30;99.90;;;;;;5114771;28;20181;-83
2021/06/13 02:38:26;;;;;;;10.85;6.90;;;12.40;99.90;;;;;;5113482;28;20178;-83
2021/06/13 02:40:53;;;;;;;11.23;7.43;;;;;;;;;;5113173;28;20510;-83
2021/06/13 02:43:19;;;;;;;9.80;6.32;;;12.20;99.90;;;;;;5114342;28;20197;-83
2021/06/13 02:45:45;;;;;;;12.15;6.95;;;12.40;99.90;;;;;;5113991;28;20180;-83
2021/06/13 02:48:11;;;;;;;13.68;6.53;;;;;;;;;;5114118;28;20600;-82
2021/06/13 02:50:37;;;;;;;10.57;7.30;;;12.30;99.90;;;;;;5114235;28;20170;-84
2021/06/13 02:53:24;;;;;;;12.27;7.07;;;12.30;99.90;;;;;;5114389;28;20265;-83
2021/06/13 02:56:07;;;;;;;15.77;7.45;;;12.10;99.90;;;;;;5114235;28;20177;-83
2021/06/13 02:58:56;;;;;;;10.82;7.32;;;12.50;99.90;;;;;;5114271;28;20169;-83
2021/06/13 03:01:22;;;;;;;13.30;7.40;;;12.50;99.90;;;;;;5105643;28;20307;-83
2021/06/13 03:03:50;;;;;;;15.85;7.18;;;12.30;99.90;;;;;;5114160;28;20546;-83
2021/06/13 03:06:19;;;;;;;13.93;7.45;;;12.70;99.90;;;;;;5114488;28;20174;-82
2021/06/13 03:08:47;;;;;;;13.13;7.40;;;12.40;99.90;;;;;;5114215;28;20174;-84
2021/06/13 03:11:14;;;;;;;18.10;7.63;;;12.40;99.90;;;;;;5114171;28;20174;-83
2021/06/13 03:13:42;;;;;;;16.20;7.22;;;12.30;99.90;;;;;;5130021;27;20240;-85
2021/06/13 03:16:09;;;;;;;9.27;5.55;;;12.00;99.90;;;;;;5114021;28;20188;-82
2021/06/13 03:18:36;;;;;;;14.73;6.85;;;12.50;99.90;;;;;;5112214;28;20211;-82
2021/06/13 03:21:04;;;;;;;13.90;7.05;;;12.40;99.90;;;;;;5113840;28;20178;-83
2021/06/13 03:23:32;;;;;;;13.13;7.17;;;12.40;99.90;;;;;;5113584;28;20234;-84
2021/06/13 03:26:01;;;;;;;13.20;6.80;;;12.40;99.90;;;;;;5112537;28;20642;-83
2021/06/13 03:28:29;;;;;;;14.15;8.00;;;12.40;99.90;;;;;;5113836;28;20178;-84
2021/06/13 03:30:56;;;;;;;14.77;7.80;;;12.20;99.90;;;;;;5113416;28;20166;-84
2021/06/13 03:33:23;;;;;;;12.25;8.65;;;12.50;99.90;;;;;;5113815;28;20182;-84
2021/06/13 03:35:50;;;;;;;17.27;8.18;;;12.80;99.90;;;;;;5113505;28;20192;-84
2021/06/13 03:38:16;;;;;;;23.67;8.63;;;12.40;99.90;;;;;;5113676;28;20182;-84
2021/06/13 03:40:43;;;;;;;13.82;8.77;;;12.40;99.90;;;;;;5113697;28;20265;-84
2021/06/13 03:43:10;;;;;;;16.40;8.95;;;;;;;;;;5113319;28;20202;-83
2021/06/13 03:45:36;;;;;;;16.35;9.85;;;12.00;99.90;;;;;;5113780;28;20174;-83
2021/06/13 03:48:03;;;;;;;15.90;9.82;;;12.30;99.90;;;;;;5095316;28;20222;-84
2021/06/13 03:50:30;;;;;;;20.90;9.75;;;12.10;99.90;;;;;;5113894;28;20261;-84
2021/06/13 03:52:56;;;;;;;15.32;11.30;;;12.90;99.90;;;;;;5113385;28;20217;-84
2021/06/13 03:55:22;;;;;;;19.35;12.02;;;;;;;;;;5112709;28;20230;-84
2021/06/13 03:57:52;;;;;;;22.70;11.93;;;13.10;99.90;;;;;;5113591;28;20672;-84
2021/06/13 04:00:18;;;;;;;19.65;11.00;;;12.60;99.90;;;;;;5112568;28;20178;-84
2021/06/13 04:02:48;;;;;;;21.15;12.48;;;12.90;99.90;;;;;;5113301;28;20192;-84
2021/06/13 04:05:16;;;;;;;19.83;10.43;;;12.80;99.90;;;;;;5112370;28;20543;-84
2021/06/13 04:07:42;;;;;;;21.30;10.98;;;12.80;99.90;;;;;;5112603;28;20177;-83
2021/06/13 04:10:09;;;;;;;18.95;10.10;;;12.70;99.90;;;;;;5113428;28;20178;-84
2021/06/13 04:12:36;;;;;;;23.17;10.50;;;12.50;99.90;;;;;;5113257;28;20221;-84
2021/06/13 04:15:03;;;;;;;14.60;9.75;;;12.50;99.90;;;;;;5111727;28;20174;-84
2021/06/13 04:17:29;;;;;;;15.07;8.50;;;12.90;99.90;;;;;;5113300;28;20174;-83
2021/06/13 04:19:56;;;;;;;15.63;8.65;;;12.90;99.90;;;;;;5113092;28;20178;-83
2021/06/13 04:22:22;;;;;;;18.25;8.40;;;12.20;99.90;;;;;;5129384;27;20195;-84
2021/06/13 04:24:50;;;;;;;18.23;9.27;;;12.90;99.90;;;;;;5112802;28;20202;-85
2021/06/13 04:27:20;;;;;;;13.23;9.00;;;12.70;99.90;;;;;;5113220;28;20268;-84
2021/06/13 04:29:46;;;;;;;18.42;10.85;;;12.60;99.90;;;;;;5114497;28;20173;-84
2021/06/13 04:32:12;;;;;;;16.33;8.95;;;12.60;99.90;;;;;;5116836;28;20270;-84
2021/06/13 04:34:39;;;;;;;14.85;9.48;;;12.50;99.90;;;;;;5116661;28;20213;-84
2021/06/13 04:37:06;;;;;;;20.63;9.80;;;12.80;99.90;;;;;;5117022;28;20182;-84
2021/06/13 04:39:32;;;;;;;19.17;9.63;;;13.00;99.90;;;;;;5150423;27;20199;-84
2021/06/13 04:41:57;;;;;;;17.58;9.13;;;12.70;99.90;;;;;;5116706;28;20218;-84
2021/06/13 04:44:23;;;;;;;18.65;8.45;;;12.70;99.90;;;;;;5115433;28;20272;-84
2021/06/13 04:46:49;;;;;;;18.33;9.57;;;12.70;99.90;;;;;;5124885;28;20190;-85
2021/06/13 04:49:14;;;;;;;18.38;9.77;;;12.70;99.90;;;;;;5132589;28;20175;-84
2021/06/13 04:51:43;;;;;;;16.73;9.00;;;12.90;99.90;;;;;;5146537;27;20635;-83
2021/06/13 04:54:14;;;;;;;13.50;7.68;;;12.70;99.90;;;;;;5118219;28;20178;-83
2021/06/13 04:57:12;;;;;;;17.25;8.02;;;12.70;99.90;;;;;;5115732;28;20166;-84
2021/06/13 04:59:37;;;;;;;16.45;7.53;;;12.80;99.90;;;;;;5070884;28;20221;-83
2021/06/13 05:02:03;;;;;;;18.35;9.00;;;12.70;99.90;;;;;;5116487;28;20204;-83
2021/06/13 05:04:29;;;;;;;12.73;7.88;;;12.70;99.90;;;;;;5115464;28;20206;-84
2021/06/13 05:06:56;;;;;;;10.50;6.82;;;12.70;99.90;;;;;;5115164;28;20604;-84
2021/06/13 05:09:22;;;;;;;14.05;6.63;;;12.80;99.90;;;;;;5098779;28;20197;-83
2021/06/13 05:11:47;;;;;;;15.27;8.15;;;12.80;99.90;;;;;;5115812;28;20189;-84
2021/06/13 05:14:13;;;;;;;14.57;8.18;;;12.90;99.90;;;;;;5115317;28;20174;-83
2021/06/13 05:16:41;;;;;;;15.73;8.40;;;12.80;99.90;;;;;;5115691;28;20282;-83
2021/06/13 05:19:08;;;;;;;15.60;7.70;;;12.90;99.90;;;;;;5116037;28;20209;-83
2021/06/13 05:21:34;;;;;;;15.90;8.07;;;12.90;99.90;;;;;;5116043;28;20181;-84
2021/06/13 05:24:01;;;;;;;17.17;8.00;;;12.90;99.90;;;;;;5115562;28;20205;-84
2021/06/13 05:26:28;;;;;;;16.13;7.53;;;12.90;99.90;;;;;;5114156;28;20186;-84
2021/06/13 05:28:54;;;;;;;18.40;8.23;;;12.90;99.90;;;;;;5115501;28;20185;-84
2021/06/13 05:31:20;;;;;;;10.55;7.50;;;12.90;99.90;;;;;;5114637;28;20630;-84
2021/06/13 05:33:45;;;;;;;12.88;7.32;;;12.90;99.90;;;;;;5115692;28;20268;-84
2021/06/13 05:36:11;;;;;;;14.10;7.63;;;12.80;99.90;;;;;;5115371;28;20193;-83
2021/06/13 05:38:40;;;;;;;16.58;8.30;;;12.70;99.90;;;;;;5115014;28;20258;-84
2021/06/13 05:41:05;;;;;;;14.50;7.32;;;12.70;99.90;;;;;;5114377;28;20174;-83
2021/06/13 05:43:31;;;;;;;19.67;8.02;;;12.70;99.90;;;;;;5114208;28;20229;-83
2021/06/13 05:45:58;;;;;;;14.35;7.68;;;;;;;;;;5119380;28;20196;-83
2021/06/13 05:48:25;;;;;;;14.68;7.82;;;12.70;99.90;;;;;;5125840;28;20182;-84
2021/06/13 05:50:50;;;;;;;18.10;7.20;;;12.70;99.90;;;;;;5127494;28;20203;-84
2021/06/13 05:53:16;;;;;;;14.85;7.47;;;12.70;99.90;;;;;;5126071;28;20674;-84
2021/06/13 05:55:42;;;;;;;15.80;7.40;;;12.80;99.90;;;;;;5123304;28;20249;-84
2021/06/13 05:58:08;;;;;;;15.77;7.00;;;12.80;99.90;;;;;;5114854;28;20642;-83
2021/06/13 06:00:35;;;;;;;20.08;8.00;;;12.80;99.90;;;;;;5114625;28;20182;-83
2021/06/13 06:03:03;;;;;;;20.65;7.80;;;12.80;99.90;;;;;;5114208;28;20173;-84
2021/06/13 06:05:30;;;;;;;15.07;7.88;;;12.80;99.90;;;;;;5114466;28;20302;-84
2021/06/13 06:07:56;;;;;;;11.88;7.70;;;12.80;99.90;;;;;;5114347;28;20295;-83
2021/06/13 06:10:24;;;;;;;12.75;7.95;;;12.80;99.90;;;;;;5113130;28;20281;-84
2021/06/13 06:12:50;;;;;;;20.20;8.63;;;12.80;99.90;;;;;;5113654;28;20386;-84
2021/06/13 06:15:18;;;;;;;17.65;8.80;;;12.80;99.90;;;;;;5113984;28;20185;-84
2021/06/13 06:17:45;;;;;;;15.73;7.65;;;12.80;99.90;;;;;;5114258;28;20268;-83
2021/06/13 06:20:13;;;;;;;15.63;8.93;;;12.80;99.90;;;;;;5095751;28;20181;-84
2021/06/13 06:22:39;;;;;;;14.45;7.72;;;12.80;99.90;;;;;;5114205;28;20264;-84
2021/06/13 06:25:07;;;;;;;12.63;7.10;;;12.80;99.90;;;;;;5112663;28;20304;-84
2021/06/13 06:27:32;;;;;;;18.70;7.63;;;12.80;99.90;;;;;;5112871;28;20243;-84
2021/06/13 06:29:58;;;;;;;14.10;7.53;;;12.80;99.90;;;;;;5114035;28;20214;-84
2021/06/13 06:32:24;;;;;;;15.23;7.72;;;12.80;99.90;;;;;;5112355;28;20223;-84
2021/06/13 06:34:49;;;;;;;17.63;7.72;;;12.80;99.90;;;;;;5113811;28;20660;-84
2021/06/13 06:37:15;;;;;;;12.02;7.25;;;12.50;99.90;;;;;;5112393;28;20190;-83
2021/06/13 06:39:41;;;;;;;15.90;8.43;;;12.90;99.90;;;;;;5113345;28;20178;-83
2021/06/13 06:42:06;;;;;;;16.70;8.55;;;12.80;99.90;;;;;;5111759;28;20216;-84
2021/06/13 06:44:32;;;;;;;13.90;7.78;;;12.80;99.90;;;;;;5111921;28;20201;-83
2021/06/13 06:47:04;;;;;;;19.50;8.85;;;12.90;99.90;;;;;;5112954;28;20568;-84
2021/06/13 06:49:31;;;;;;;14.55;8.35;;;13.00;99.90;;;;;;5089355;28;20200;-85
2021/06/13 06:51:58;;;;;;;18.70;9.15;;;13.00;99.90;;;;;;5112762;28;20507;-86
2021/06/13 06:54:23;;;;;;;14.82;8.80;;;13.30;99.90;;;;;;5111633;28;20181;-84
2021/06/13 06:56:49;;;;;;;16.25;9.18;;;13.10;99.90;;;;;;5095048;28;20321;-85
2021/06/13 06:59:15;;;;;;;14.38;7.70;;;13.20;99.90;;;;;;5111336;28;20515;-83
2021/06/13 07:01:40;;;;;;;15.15;7.93;;;13.10;99.90;;;;;;5112893;28;20232;-85
2021/06/13 07:04:06;;;;;;;15.13;8.07;;;;;;;;;;5111106;28;20209;-86
2021/06/13 07:06:32;;;;;;;14.80;8.65;;;13.10;99.90;;;;;;5087676;28;20186;-85
2021/06/13 07:08:58;;;;;;;16.88;8.20;;;13.10;99.90;;;;;;5111540;28;20327;-84
2021/06/13 07:11:24;;;;;;;12.27;8.43;;;13.20;99.90;;;;;;5112509;28;20257;-82
2021/06/13 07:13:50;;;;;;;17.95;8.73;;;;;;;;;;5111403;28;20225;-85
2021/06/13 07:16:16;;;;;;;16.88;8.23;;;13.10;99.90;;;;;;5111013;28;20173;-84
2021/06/13 07:18:42;;;;;;;16.25;8.10;;;13.10;99.90;;;;;;5112615;28;20178;-84
2021/06/13 07:21:08;;;;;;;18.10;8.77;;;13.00;99.90;;;;;;5118809;27;20185;-84
2021/06/13 07:23:34;;;;;;;17.27;8.57;;;13.00;99.90;;;;;;5111279;28;20733;-84
2021/06/13 07:26:00;;;;;;;19.15;7.97;;;13.00;99.90;;;;;;5112418;28;20174;-85
2021/06/13 07:28:26;;;;;;;19.40;8.18;;;13.00;99.90;;;;;;5111138;28;20188;-84
2021/06/13 07:30:51;;;;;;;17.77;8.10;;;13.00;99.90;;;;;;5112547;28;20173;-83
2021/06/13 07:33:17;;;;;;;23.15;7.63;;;13.00;99.90;;;;;;5110967;28;20185;-85
2021/06/13 07:35:43;;;;;;;20.23;8.50;;;13.00;99.90;;;;;;5111238;28;20224;-84
2021/06/13 07:38:09;;;;;;;18.33;7.47;;;13.00;99.90;;;;;;5120099;27;20542;-84
2021/06/13 07:40:34;;;;;;;15.02;7.97;;;13.00;99.90;;;;;;5110522;28;20173;-83
2021/06/13 07:43:01;;;;;;;18.55;8.23;;;13.00;99.90;;;;;;5110494;28;20634;-82
2021/06/13 07:45:27;;;;;;;17.98;8.25;;;13.10;99.90;;;;;;5111300;28;20289;-83
2021/06/13 07:47:54;;;;;;;13.00;7.63;;;13.10;99.90;;;;;;5109858;28;20184;-84
2021/06/13 07:50:21;;;;;;;14.57;7.57;;;13.20;99.90;;;;;;5111083;28;20201;-84
2021/06/13 07:52:48;;;;;;;13.75;7.38;;;13.30;99.90;;;;;;5109392;28;20305;-83
2021/06/13 07:55:15;;;;;;;15.30;7.47;;;13.30;99.90;;;;;;5109904;28;20192;-84
2021/06/13 07:57:45;;;;;;;12.15;7.40;;;13.40;99.90;;;;;;5110912;28;20184;-84
2021/06/13 08:00:14;;;;;;;17.73;7.95;;;13.50;99.90;;;;;;5110685;28;20170;-85
2021/06/13 08:02:40;;;;;;;15.35;8.65;;;13.60;99.90;;;;;;5112006;28;20174;-83
2021/06/13 08:05:10;;;;;;;15.85;8.65;;;13.60;99.90;;;;;;5112709;28;20193;-83
2021/06/13 08:07:37;;;;;;;16.35;9.00;;;13.70;99.90;;;;;;5116007;28;20174;-85
2021/06/13 08:10:07;;;;;;;15.77;8.25;;;13.80;99.90;;;;;;5116163;28;20174;-84
2021/06/13 08:12:34;;;;;;;17.88;8.88;;;13.70;99.90;;;;;;5114357;28;20245;-83
2021/06/13 08:14:59;;;;;;;15.15;7.65;;;13.80;99.90;;;;;;5114906;28;20178;-85
2021/06/13 08:17:25;;;;;;;17.10;6.95;;;13.80;99.90;;;;;;5115544;28;20196;-83
2021/06/13 08:19:51;;;;;;;15.30;7.18;;;13.90;99.90;;;;;;5114861;28;20193;-83
2021/06/13 08:22:17;;;;;;;11.77;7.15;;;13.90;99.90;;;;;;5116067;28;20181;-83
2021/06/13 08:24:43;;;;;;;12.82;6.78;;;14.00;99.90;;;;;;5114162;28;20204;-83
2021/06/13 08:27:09;;;;;;;13.00;6.22;;;14.00;99.90;;;;;;5114815;28;20186;-82
2021/06/13 08:29:35;;;;;;;14.25;7.57;;;14.00;99.90;;;;;;5113999;28;20246;-83
2021/06/13 08:32:01;;;;;;;12.35;7.35;;;14.00;99.90;;;;;;5095772;28;20185;-84
2021/06/13 08:34:27;;;;;;;13.57;6.47;;;14.00;99.90;;;;;;5112468;28;20233;-84
2021/06/13 08:36:53;;;;;;;12.63;7.60;;;14.00;99.90;;;;;;5094225;28;20411;-84
2021/06/13 08:39:19;;;;;;;11.05;7.88;;;14.10;99.90;;;;;;5113090;28;20174;-85
2021/06/13 08:41:45;;;;;;;16.58;7.43;;;14.10;99.90;;;;;;5095960;28;20181;-85
2021/06/13 08:44:11;;;;;;;15.07;8.18;;;14.10;99.90;;;;;;5113906;28;20208;-86
2021/06/13 08:46:41;;;;;;;18.67;9.60;;;14.10;99.90;;;;;;5112776;28;20755;-85
2021/06/13 08:49:07;;;;;;;17.00;8.88;;;14.00;99.90;;;;;;5111071;28;20253;-85
2021/06/13 08:51:33;;;;;;;12.15;7.90;;;14.00;99.90;;;;;;5096255;28;20265;-83
2021/06/13 08:53:59;;;;;;;10.45;8.00;;;13.90;99.90;;;;;;5114745;28;20216;-84
2021/06/13 08:56:25;;;;;;;15.82;10.18;;;13.90;99.90;;;;;;5112820;28;20181;-82
2021/06/13 08:58:52;;;;;;;16.20;10.57;;;13.90;99.90;;;;;;5113050;28;20178;-82
2021/06/13 09:01:18;;;;;;;16.10;11.00;;;13.90;99.90;;;;;;5112625;28;20201;-83
2021/06/13 09:03:44;;;;;;;18.70;11.65;;;13.90;99.90;;;;;;5113977;28;20197;-85
2021/06/13 09:06:11;;;;;;;21.85;11.80;;;14.00;99.90;;;;;;5112572;28;20203;-83
2021/06/13 09:08:39;;;;;;;19.90;11.85;;;14.00;99.90;;;;;;5113457;28;20170;-84
2021/06/13 09:11:06;;;;;;;14.77;10.52;;;14.10;99.90;;;;;;5111803;28;20265;-84
2021/06/13 09:13:34;;;;;;;18.08;10.25;;;14.10;99.90;;;;;;5111591;28;20563;-85
2021/06/13 09:16:02;;;;;;;17.80;8.07;;;14.10;99.90;;;;;;5111328;28;20550;-84
2021/06/13 09:18:39;;;;;;;14.00;7.85;;;14.10;99.90;;;;;;5095058;28;20749;-83
2021/06/13 09:21:13;;;;;;;13.68;8.05;;;14.10;99.90;;;;;;5112774;28;20219;-84
2021/06/13 09:23:41;;;;;;;20.55;10.35;;;14.10;99.90;;;;;;5111203;28;20224;-82
2021/06/13 09:26:10;;;;;;;24.35;10.63;;;14.20;99.90;;;;;;5113458;28;20319;-84
2021/06/13 09:28:49;;;;;;;18.45;11.48;;;14.30;99.90;;;;;;5111896;28;20782;-82
2021/06/13 09:31:24;;;;;;;15.85;10.43;;;14.40;99.90;;;;;;5110955;28;20238;-84
2021/06/13 09:33:53;;;;;;;15.80;10.05;;;14.50;99.90;;;;;;5113587;28;20173;-83
2021/06/13 09:36:30;;;;;;;19.27;10.10;;;14.70;99.90;;;;;;5112960;28;20189;-84
2021/06/13 09:39:01;;;;;;;17.38;8.25;;;14.80;99.90;;;;;;5113872;28;20173;-83
2021/06/13 09:41:28;;;;;;;12.05;6.90;;;15.00;99.90;;;;;;5112906;28;20510;-83
2021/06/13 09:44:12;;;;;;;11.95;6.35;;;15.00;99.90;;;;;;5113371;28;20239;-84
2021/06/13 09:46:40;;;;;;;12.02;6.28;;;15.00;99.90;;;;;;5110722;28;20434;-84
2021/06/13 09:49:14;;;;;;;13.80;5.90;;;14.80;99.90;;;;;;5113474;28;20174;-86
2021/06/13 09:51:48;;;;;;;18.58;5.97;;;14.90;99.90;;;;;;5113256;28;20210;-82
2021/06/13 09:54:20;;;;;;;15.82;6.63;;;14.70;99.90;;;;;;5114733;28;20264;-83
2021/06/13 09:56:46;;;;;;;16.70;6.93;;;14.70;99.90;;;;;;5112962;28;20260;-82
2021/06/13 09:59:23;;;;;;;11.18;6.63;;;14.80;99.90;;;;;;5114369;28;20174;-82
2021/06/13 10:01:59;;;;;;;13.10;6.93;;;14.80;99.90;;;;;;5114643;28;20187;-83
2021/06/13 10:04:30;;;;;;;20.08;8.43;;;14.80;99.90;;;;;;5114237;28;20193;-83
2021/06/13 10:07:21;;;;;;;20.80;8.38;;;14.80;99.90;;;;;;5113995;28;20172;-82
2021/06/13 10:09:52;;;;;;;16.02;7.85;;;15.00;99.90;;;;;;5114373;28;20198;-83
2021/06/13 10:12:20;;;;;;;17.60;8.02;;;14.70;99.90;;;;;;5112797;28;20256;-83
2021/06/13 10:14:48;;;;;;;22.80;8.65;;;14.90;99.90;;;;;;5094245;28;20186;-82
2021/06/13 10:17:14;;;;;;;13.20;7.55;;;14.90;99.90;;;;;;5093649;28;20187;-83
2021/06/13 10:19:45;;;;;;;25.73;8.45;;;15.00;99.90;;;;;;5097290;28;20276;-83
2021/06/13 10:22:12;;;;;;;15.02;9.02;;;15.10;99.90;;;;;;5095076;28;20198;-84
2021/06/13 10:24:42;;;;;;;13.07;7.40;;;15.30;99.90;;;;;;5094046;28;20203;-83
2021/06/13 10:27:09;;;;;;;9.88;6.97;;;15.30;99.90;;;;;;5093589;28;20183;-83
2021/06/13 10:29:37;;;;;;;12.98;6.95;;;15.20;99.90;;;;;;5091934;28;20654;-82
2021/06/13 10:32:05;;;;;;;16.17;6.50;;;15.10;99.90;;;;;;5092391;28;20183;-83
2021/06/13 10:34:31;;;;;;;14.70;7.45;;;15.10;99.90;;;;;;5092896;28;20788;-83
2021/06/13 10:36:59;;;;;;;12.38;6.85;;;15.20;99.90;;;;;;5126357;27;20181;-83
2021/06/13 10:39:27;;;;;;;15.82;6.22;;;15.40;99.90;;;;;;5092035;28;20185;-86
2021/06/13 10:41:56;;;;;;;8.90;5.50;;;15.60;99.90;;;;;;5093569;28;20626;-82
2021/06/13 10:44:24;;;;;;;16.13;6.32;;;15.60;99.90;;;;;;5110076;28;20221;-83
2021/06/13 10:46:53;;;;;;;9.02;5.97;;;15.60;99.90;;;;;;5110545;28;20221;-83
2021/06/13 10:49:33;;;;;;;10.80;5.35;;;15.50;99.90;;;;;;5109690;28;20747;-83
2021/06/13 10:52:10;;;;;;;10.88;5.60;;;15.40;99.90;;;;;;5110195;28;20238;-87
2021/06/13 10:54:52;;;;;;;14.45;6.68;;;15.50;99.90;;;;;;5110696;28;20178;-84
2021/06/13 10:57:17;;;;;;;11.18;5.57;;;15.40;99.90;;;;;;5110367;28;20647;-83
2021/06/13 10:59:57;;;;;;;15.68;6.50;;;15.30;99.90;;;;;;5109620;28;20185;-83
2021/06/13 11:02:25;;;;;;;11.30;5.70;;;15.20;99.90;;;;;;5110392;28;20235;-82
2021/06/13 11:04:59;;;;;;;12.55;5.93;;;15.00;99.90;;;;;;5112037;28;20186;-82
2021/06/13 11:07:34;;;;;;;11.45;5.78;;;14.90;99.90;;;;;;5110624;28;20199;-83
2021/06/13 11:10:06;;;;;;;12.63;5.60;;;14.80;99.90;;;;;;5111213;28;20162;-82
2021/06/13 11:13:01;;;;;;;12.82;6.18;;;14.60;99.90;;;;;;5109815;28;20630;-83
2021/06/13 11:15:39;;;;;;;14.80;5.72;;;14.40;99.90;;;;;;5109483;28;20173;-81
2021/06/13 11:18:13;;;;;;;14.52;6.63;;;14.30;99.90;;;;;;5109018;28;20181;-82
2021/06/13 11:23:09;;;;;;;24.05;8.60;;;14.00;99.90;;;;;;5108942;28;20277;-83
2021/06/13 11:25:39;;;;;;;16.88;8.18;;;13.90;99.90;;;;;;5111266;28;20174;-81
2021/06/13 11:28:22;;;;;;;16.67;8.23;;;13.80;99.90;;;;;;5112137;28;20178;-82
2021/06/13 11:30:49;;;;;;;21.13;8.13;;;13.70;99.90;;;;;;5109756;28;20173;-82
2021/06/13 11:33:48;;;;;;;16.83;8.93;;;13.50;99.90;;;;;;5111886;28;20203;-83
2021/06/13 11:36:18;;;;;;;14.07;9.15;;;13.50;99.90;;;;;;5055984;28;20579;-82
2021/06/13 11:38:45;;;;;;;20.27;9.82;;;13.50;99.90;;;;;;5107711;28;20181;-82
2021/06/13 11:41:34;;;;;;;20.80;10.10;;;13.50;99.90;;;;;;5110644;28;20642;-82
2021/06/13 11:44:01;;;;;;;19.48;10.10;;;13.60;99.90;;;;;;5111435;28;20189;-82
2021/06/13 11:46:34;;;;;;;17.88;10.32;;;13.50;99.90;;;;;;5110367;28;20650;-83
2021/06/13 11:49:01;;;;;;;19.58;9.93;;;13.40;99.90;;;;;;5110463;28;20174;-82
2021/06/13 11:51:27;;;;;;;21.27;10.48;;;13.50;99.90;;;;;;5086938;28;20174;-82
2021/06/13 11:53:58;;;;;;;19.25;10.95;;;13.50;99.90;;;;;;5110036;28;20189;-82
2021/06/13 11:56:35;;;;;;;21.40;11.85;;;13.50;99.90;;;;;;5111318;28;20207;-82
2021/06/13 11:59:22;;;;;;;25.65;10.82;;;13.40;99.90;;;;;;5111709;28;20169;-82
2021/06/13 12:01:56;;;;;;;21.77;9.98;;;13.40;99.90;;;;;;5111274;28;20174;-82
2021/06/13 12:04:24;;;;;;;18.95;9.93;;;13.30;99.90;;;;;;5109450;28;20201;-82
2021/06/13 12:06:50;;;;;;;20.17;9.45;;;13.20;99.90;;;;;;5111688;28;20198;-82
2021/06/13 12:09:18;;;;;;;19.33;11.30;;;13.20;99.90;;;;;;5102269;28;20182;-82
2021/06/13 12:11:56;;;;;;;20.27;10.93;;;13.20;99.90;;;;;;5111119;28;20177;-81
2021/06/13 12:14:25;;;;;;;24.20;10.80;;;13.20;99.90;;;;;;5110230;28;20182;-81
2021/06/13 12:16:54;;;;;;;18.75;10.40;;;13.10;99.90;;;;;;5110257;28;20174;-82
2021/06/13 12:19:33;;;;;;;15.90;9.30;;;13.20;99.90;;;;;;5111862;28;20180;-82
2021/06/13 12:22:13;;;;;;;19.05;10.07;;;13.20;99.90;;;;;;5108765;28;20177;-82
2021/06/13 12:27:22;;;;;;;16.70;8.40;;;13.30;99.90;;;;;;5110253;28;20718;-82
2021/06/13 12:29:51;;;;;;;12.00;8.13;;;13.30;99.90;;;;;;5110653;28;20241;-82
2021/06/13 12:32:17;;;;;;;19.73;9.50;;;13.30;99.90;;;;;;5107862;28;20185;-83
2021/06/13 12:34:52;;;;;;;18.15;9.43;;;13.40;99.90;;;;;;5110878;28;20189;-82
2021/06/13 12:37:24;;;;;;;13.02;9.23;;;13.40;99.90;;;;;;5108577;28;20177;-82
2021/06/13 12:40:05;;;;;;;18.02;9.32;;;13.50;99.90;;;;;;5108945;28;20178;-82
2021/06/13 12:42:31;;;;;;;16.30;9.93;;;13.60;99.90;;;;;;5110145;28;20178;-82
2021/06/13 12:45:18;;;;;;;16.73;9.55;;;13.60;99.90;;;;;;5108372;28;20194;-82
2021/06/13 12:47:47;;;;;;;12.40;8.38;;;13.60;99.90;;;;;;5109240;28;20185;-81
2021/06/13 12:50:26;;;;;;;15.00;8.02;;;13.60;99.90;;;;;;5111091;28;20170;-84
2021/06/13 12:52:54;;;;;;;16.38;8.25;;;13.60;99.90;;;;;;5113675;28;20161;-83
2021/06/13 12:55:21;;;;;;;13.65;8.32;;;13.50;99.90;;;;;;5114555;28;20201;-87